Página principal
METAR-TAF:

METAR-TAF

Aeroportos :

Badajoz, Espanha

latitude: 38-53N, longitude: 006-49W, altura: 185 m

Observação actual do tempo

O boletim foi feito há 18 minutos, às 11:00 UTC
Vento 7 kt de este, variando entre nordeste e es-sudeste
Temperatura 32°C
Humidade 36%
Pressão 1017 hPa
Visibilidade 10 km ou mais
sem nuvens abaixo de 1500 metros e sem cumulonimbus

METAR: LEBZ 191100Z 08007KT 040V120 CAVOK 32/15 Q1017

Hora: 13:18 (11:18 UTC)

Previsão

O boletim foi feito há 6 horas e 18 minutos, às 05:00 UTC
Previsão válida de 19 às 06 UTC a 20 às 06 UTC
Vento 3 kt com direcção variável
Visibilidade 10 km ou mais
sem nuvens abaixo de 1500 metros e sem cumulonimbus

TAF: LEBZ 190500Z 1906/2006 VRB03KT CAVOK TX37/1916Z TN19/1906Z

Observações e previsões do tempo de mais de 4000 aeroportos (mensagens METAR e TAF).

As estações disponíveis são os pontos amarelos e vermelhos sobre o mapa.

Mova o rato sobre o mapa para ver o nome da estação.

Depois clique no ponto para visualizar as observações e previsões meteorológicas.

Para alterar o mapa : clique nos botões verdes com uma cruz preta para aumentar o zoom; no botão verde com uma pitada de zoom; ou nas setas verdes para mapas adjacentes.


METAR-TAF: